sensor_id;sensor_type;location;lat;lon;timestamp;temperature;humidity
3756;DHT22;1893;52.526;13.360;2024-02-26T00:01:40;4.10;99.90
3756;DHT22;1893;52.526;13.360;2024-02-26T00:04:06;4.10;99.90
3756;DHT22;1893;52.526;13.360;2024-02-26T00:06:32;4.10;99.90
3756;DHT22;1893;52.526;13.360;2024-02-26T00:08:58;4.10;99.90
3756;DHT22;1893;52.526;13.360;2024-02-26T00:11:23;4.00;99.90
3756;DHT22;1893;52.526;13.360;2024-02-26T00:13:49;4.00;99.90
3756;DHT22;1893;52.526;13.360;2024-02-26T00:16:15;4.00;99.90
3756;DHT22;1893;52.526;13.360;2024-02-26T00:18:40;4.00;99.90
3756;DHT22;1893;52.526;13.360;2024-02-26T00:21:06;4.10;99.90
3756;DHT22;1893;52.526;13.360;2024-02-26T00:23:32;4.10;99.90
3756;DHT22;1893;52.526;13.360;2024-02-26T00:25:57;4.00;99.90
3756;DHT22;1893;52.526;13.360;2024-02-26T00:28:23;3.90;99.90
3756;DHT22;1893;52.526;13.360;2024-02-26T00:30:50;3.90;99.90
3756;DHT22;1893;52.526;13.360;2024-02-26T00:33:21;4.10;99.90
3756;DHT22;1893;52.526;13.360;2024-02-26T00:35:47;4.10;99.90
3756;DHT22;1893;52.526;13.360;2024-02-26T00:38:12;4.10;99.90
3756;DHT22;1893;52.526;13.360;2024-02-26T00:40:38;4.00;99.90
3756;DHT22;1893;52.526;13.360;2024-02-26T00:43:03;4.10;99.90
3756;DHT22;1893;52.526;13.360;2024-02-26T00:45:29;4.10;99.90
3756;DHT22;1893;52.526;13.360;2024-02-26T00:47:55;4.00;99.90
3756;DHT22;1893;52.526;13.360;2024-02-26T00:50:21;4.00;99.90
3756;DHT22;1893;52.526;13.360;2024-02-26T00:52:46;4.10;99.90
3756;DHT22;1893;52.526;13.360;2024-02-26T00:55:12;3.90;99.90
3756;DHT22;1893;52.526;13.360;2024-02-26T00:57:38;3.90;99.90
3756;DHT22;1893;52.526;13.360;2024-02-26T01:00:04;3.80;99.90
3756;DHT22;1893;52.526;13.360;2024-02-26T01:02:30;3.90;99.90
3756;DHT22;1893;52.526;13.360;2024-02-26T01:04:55;3.80;99.90
3756;DHT22;1893;52.526;13.360;2024-02-26T01:07:21;3.80;99.90
3756;DHT22;1893;52.526;13.360;2024-02-26T01:09:47;3.90;99.90
3756;DHT22;1893;52.526;13.360;2024-02-26T01:12:12;3.80;99.90
3756;DHT22;1893;52.526;13.360;2024-02-26T01:14:38;3.80;99.90
3756;DHT22;1893;52.526;13.360;2024-02-26T01:17:04;3.70;99.90
3756;DHT22;1893;52.526;13.360;2024-02-26T01:19:29;3.70;99.90
3756;DHT22;1893;52.526;13.360;2024-02-26T01:21:55;3.90;99.90
3756;DHT22;1893;52.526;13.360;2024-02-26T01:24:20;4.00;99.90
3756;DHT22;1893;52.526;13.360;2024-02-26T01:26:47;3.70;99.90
3756;DHT22;1893;52.526;13.360;2024-02-26T01:29:13;3.60;99.90
3756;DHT22;1893;52.526;13.360;2024-02-26T01:31:39;3.60;99.90
3756;DHT22;1893;52.526;13.360;2024-02-26T01:34:04;3.70;99.90
3756;DHT22;1893;52.526;13.360;2024-02-26T01:36:30;3.70;99.90
3756;DHT22;1893;52.526;13.360;2024-02-26T01:38:55;3.60;99.90
3756;DHT22;1893;52.526;13.360;2024-02-26T01:41:21;3.70;99.90
3756;DHT22;1893;52.526;13.360;2024-02-26T01:43:46;3.60;99.90
3756;DHT22;1893;52.526;13.360;2024-02-26T01:46:14;3.50;99.90
3756;DHT22;1893;52.526;13.360;2024-02-26T01:48:43;3.50;99.90
3756;DHT22;1893;52.526;13.360;2024-02-26T01:51:10;3.40;99.90
3756;DHT22;1893;52.526;13.360;2024-02-26T01:53:36;3.30;99.90
3756;DHT22;1893;52.526;13.360;2024-02-26T01:56:02;3.30;99.90
3756;DHT22;1893;52.526;13.360;2024-02-26T01:58:29;3.30;99.90
3756;DHT22;1893;52.526;13.360;2024-02-26T02:00:56;3.30;99.90
3756;DHT22;1893;52.526;13.360;2024-02-26T02:03:22;3.40;99.90
3756;DHT22;1893;52.526;13.360;2024-02-26T02:05:48;3.30;99.90
3756;DHT22;1893;52.526;13.360;2024-02-26T02:08:14;3.30;99.90
3756;DHT22;1893;52.526;13.360;2024-02-26T02:10:42;3.40;99.90
3756;DHT22;1893;52.526;13.360;2024-02-26T02:13:08;3.30;99.90
3756;DHT22;1893;52.526;13.360;2024-02-26T02:15:34;3.30;99.90
3756;DHT22;1893;52.526;13.360;2024-02-26T02:18:00;3.20;99.90
3756;DHT22;1893;52.526;13.360;2024-02-26T02:20:35;3.10;99.90
3756;DHT22;1893;52.526;13.360;2024-02-26T02:23:02;3.20;99.90
3756;DHT22;1893;52.526;13.360;2024-02-26T02:25:28;3.10;99.90
3756;DHT22;1893;52.526;13.360;2024-02-26T02:27:54;3.20;99.90
3756;DHT22;1893;52.526;13.360;2024-02-26T02:30:29;3.10;99.90
3756;DHT22;1893;52.526;13.360;2024-02-26T02:32:55;3.10;99.90
3756;DHT22;1893;52.526;13.360;2024-02-26T02:35:23;3.10;99.90
3756;DHT22;1893;52.526;13.360;2024-02-26T02:37:49;3.10;99.90
3756;DHT22;1893;52.526;13.360;2024-02-26T02:40:15;3.20;99.90
3756;DHT22;1893;52.526;13.360;2024-02-26T02:42:40;3.20;99.90
3756;DHT22;1893;52.526;13.360;2024-02-26T02:45:06;3.20;99.90
3756;DHT22;1893;52.526;13.360;2024-02-26T02:47:36;3.10;99.90
3756;DHT22;1893;52.526;13.360;2024-02-26T02:50:02;3.10;99.90
3756;DHT22;1893;52.526;13.360;2024-02-26T02:52:27;3.20;99.90
3756;DHT22;1893;52.526;13.360;2024-02-26T02:54:53;3.20;99.90
3756;DHT22;1893;52.526;13.360;2024-02-26T02:57:18;3.20;99.90
3756;DHT22;1893;52.526;13.360;2024-02-26T02:59:44;3.30;99.90
3756;DHT22;1893;52.526;13.360;2024-02-26T03:02:10;3.80;99.90
3756;DHT22;1893;52.526;13.360;2024-02-26T03:04:35;3.90;99.90
3756;DHT22;1893;52.526;13.360;2024-02-26T03:07:01;4.00;99.90
3756;DHT22;1893;52.526;13.360;2024-02-26T03:09:26;4.00;99.90
3756;DHT22;1893;52.526;13.360;2024-02-26T03:11:52;4.00;99.90
3756;DHT22;1893;52.526;13.360;2024-02-26T03:14:18;4.00;99.90
3756;DHT22;1893;52.526;13.360;2024-02-26T03:16:43;4.00;99.90
3756;DHT22;1893;52.526;13.360;2024-02-26T03:19:09;3.90;99.90
3756;DHT22;1893;52.526;13.360;2024-02-26T03:21:34;3.90;99.90
3756;DHT22;1893;52.526;13.360;2024-02-26T03:24:00;3.90;99.90
3756;DHT22;1893;52.526;13.360;2024-02-26T03:26:26;3.90;99.90
3756;DHT22;1893;52.526;13.360;2024-02-26T03:28:51;3.80;99.90
3756;DHT22;1893;52.526;13.360;2024-02-26T03:31:17;3.80;99.90
3756;DHT22;1893;52.526;13.360;2024-02-26T03:33:42;3.80;99.90
3756;DHT22;1893;52.526;13.360;2024-02-26T03:36:08;3.60;99.90
3756;DHT22;1893;52.526;13.360;2024-02-26T03:38:34;3.60;99.90
3756;DHT22;1893;52.526;13.360;2024-02-26T03:40:59;3.60;99.90
3756;DHT22;1893;52.526;13.360;2024-02-26T03:43:25;3.60;99.90
3756;DHT22;1893;52.526;13.360;2024-02-26T03:45:50;3.40;99.90
3756;DHT22;1893;52.526;13.360;2024-02-26T03:48:16;3.50;99.90
3756;DHT22;1893;52.526;13.360;2024-02-26T03:50:42;3.50;99.90
3756;DHT22;1893;52.526;13.360;2024-02-26T03:53:07;3.50;99.90
3756;DHT22;1893;52.526;13.360;2024-02-26T03:55:34;3.60;99.90
3756;DHT22;1893;52.526;13.360;2024-02-26T03:58:00;3.50;99.90
3756;DHT22;1893;52.526;13.360;2024-02-26T04:00:26;3.40;99.90
3756;DHT22;1893;52.526;13.360;2024-02-26T04:02:54;3.40;99.90
3756;DHT22;1893;52.526;13.360;2024-02-26T04:05:20;3.40;99.90
3756;DHT22;1893;52.526;13.360;2024-02-26T04:07:45;3.40;99.90
3756;DHT22;1893;52.526;13.360;2024-02-26T04:10:11;3.40;99.90
3756;DHT22;1893;52.526;13.360;2024-02-26T04:12:41;3.40;99.90
3756;DHT22;1893;52.526;13.360;2024-02-26T04:15:08;3.40;99.90
3756;DHT22;1893;52.526;13.360;2024-02-26T04:17:34;3.30;99.90
3756;DHT22;1893;52.526;13.360;2024-02-26T04:20:00;3.40;99.90
3756;DHT22;1893;52.526;13.360;2024-02-26T04:22:25;3.30;99.90
3756;DHT22;1893;52.526;13.360;2024-02-26T04:24:51;3.30;99.90
3756;DHT22;1893;52.526;13.360;2024-02-26T04:27:16;3.20;99.90
3756;DHT22;1893;52.526;13.360;2024-02-26T04:29:42;3.20;99.90
3756;DHT22;1893;52.526;13.360;2024-02-26T04:32:08;3.10;99.90
3756;DHT22;1893;52.526;13.360;2024-02-26T04:34:33;3.10;99.90
3756;DHT22;1893;52.526;13.360;2024-02-26T04:36:59;3.10;99.90
3756;DHT22;1893;52.526;13.360;2024-02-26T04:39:24;3.00;99.90
3756;DHT22;1893;52.526;13.360;2024-02-26T04:41:51;3.10;99.90
3756;DHT22;1893;52.526;13.360;2024-02-26T04:44:16;3.00;99.90
3756;DHT22;1893;52.526;13.360;2024-02-26T04:46:42;3.00;99.90
3756;DHT22;1893;52.526;13.360;2024-02-26T04:49:08;3.00;99.90
3756;DHT22;1893;52.526;13.360;2024-02-26T04:51:33;3.10;99.90
3756;DHT22;1893;52.526;13.360;2024-02-26T04:53:59;3.00;99.90
3756;DHT22;1893;52.526;13.360;2024-02-26T04:56:25;2.90;99.90
3756;DHT22;1893;52.526;13.360;2024-02-26T04:58:51;2.90;99.90
3756;DHT22;1893;52.526;13.360;2024-02-26T05:01:16;2.90;99.90
3756;DHT22;1893;52.526;13.360;2024-02-26T05:03:42;2.90;99.90
3756;DHT22;1893;52.526;13.360;2024-02-26T05:06:08;2.90;99.90
3756;DHT22;1893;52.526;13.360;2024-02-26T05:08:34;2.90;99.90
3756;DHT22;1893;52.526;13.360;2024-02-26T05:11:02;3.20;99.90
3756;DHT22;1893;52.526;13.360;2024-02-26T05:13:28;3.00;99.90
3756;DHT22;1893;52.526;13.360;2024-02-26T05:15:54;3.00;99.90
3756;DHT22;1893;52.526;13.360;2024-02-26T05:18:20;3.00;99.90
3756;DHT22;1893;52.526;13.360;2024-02-26T05:20:45;3.00;99.90
3756;DHT22;1893;52.526;13.360;2024-02-26T05:23:11;3.00;99.90
3756;DHT22;1893;52.526;13.360;2024-02-26T05:25:37;3.00;99.90
3756;DHT22;1893;52.526;13.360;2024-02-26T05:28:03;3.00;99.90
3756;DHT22;1893;52.526;13.360;2024-02-26T05:30:28;3.00;99.90
3756;DHT22;1893;52.526;13.360;2024-02-26T05:32:54;3.00;99.90
3756;DHT22;1893;52.526;13.360;2024-02-26T05:35:20;3.10;99.90
3756;DHT22;1893;52.526;13.360;2024-02-26T05:37:45;3.10;99.90
3756;DHT22;1893;52.526;13.360;2024-02-26T05:40:11;3.10;99.90
3756;DHT22;1893;52.526;13.360;2024-02-26T05:42:37;3.00;99.90
3756;DHT22;1893;52.526;13.360;2024-02-26T05:45:03;3.00;99.90
3756;DHT22;1893;52.526;13.360;2024-02-26T05:47:35;3.00;99.90
3756;DHT22;1893;52.526;13.360;2024-02-26T05:50:01;3.00;99.90
3756;DHT22;1893;52.526;13.360;2024-02-26T05:52:27;3.10;99.90
3756;DHT22;1893;52.526;13.360;2024-02-26T05:54:54;3.00;99.90
3756;DHT22;1893;52.526;13.360;2024-02-26T05:57:20;2.90;99.90
3756;DHT22;1893;52.526;13.360;2024-02-26T05:59:46;2.90;99.90
3756;DHT22;1893;52.526;13.360;2024-02-26T06:02:11;2.90;99.90
3756;DHT22;1893;52.526;13.360;2024-02-26T06:04:37;2.90;99.90
3756;DHT22;1893;52.526;13.360;2024-02-26T06:07:02;2.90;99.90
3756;DHT22;1893;52.526;13.360;2024-02-26T06:09:28;2.90;99.90
3756;DHT22;1893;52.526;13.360;2024-02-26T06:11:55;3.00;99.90
3756;DHT22;1893;52.526;13.360;2024-02-26T06:14:20;3.00;99.90
3756;DHT22;1893;52.526;13.360;2024-02-26T06:16:46;3.00;99.90
3756;DHT22;1893;52.526;13.360;2024-02-26T06:19:13;3.10;99.90
3756;DHT22;1893;52.526;13.360;2024-02-26T06:21:39;3.00;99.90
3756;DHT22;1893;52.526;13.360;2024-02-26T06:24:05;3.10;99.90
3756;DHT22;1893;52.526;13.360;2024-02-26T06:26:30;3.10;99.90
3756;DHT22;1893;52.526;13.360;2024-02-26T06:28:58;3.20;99.90
3756;DHT22;1893;52.526;13.360;2024-02-26T06:31:24;3.20;99.90
3756;DHT22;1893;52.526;13.360;2024-02-26T06:33:50;3.20;99.90
3756;DHT22;1893;52.526;13.360;2024-02-26T06:36:16;3.30;99.90
3756;DHT22;1893;52.526;13.360;2024-02-26T06:38:42;3.40;99.90
3756;DHT22;1893;52.526;13.360;2024-02-26T06:41:07;3.40;99.90
3756;DHT22;1893;52.526;13.360;2024-02-26T06:43:33;3.50;99.90
3756;DHT22;1893;52.526;13.360;2024-02-26T06:45:58;3.60;99.90
3756;DHT22;1893;52.526;13.360;2024-02-26T06:48:24;3.70;99.90
3756;DHT22;1893;52.526;13.360;2024-02-26T06:50:50;3.90;99.90
3756;DHT22;1893;52.526;13.360;2024-02-26T06:53:16;4.00;99.90
3756;DHT22;1893;52.526;13.360;2024-02-26T06:55:42;4.20;99.90
3756;DHT22;1893;52.526;13.360;2024-02-26T06:58:08;4.40;99.90
3756;DHT22;1893;52.526;13.360;2024-02-26T07:00:34;4.70;99.90
3756;DHT22;1893;52.526;13.360;2024-02-26T07:03:00;4.90;99.90
3756;DHT22;1893;52.526;13.360;2024-02-26T07:05:26;5.10;99.90
3756;DHT22;1893;52.526;13.360;2024-02-26T07:07:52;5.10;99.90
3756;DHT22;1893;52.526;13.360;2024-02-26T07:10:18;5.20;99.90
3756;DHT22;1893;52.526;13.360;2024-02-26T07:12:44;5.30;99.90
3756;DHT22;1893;52.526;13.360;2024-02-26T07:15:10;5.50;99.90
3756;DHT22;1893;52.526;13.360;2024-02-26T07:17:36;5.60;99.90
3756;DHT22;1893;52.526;13.360;2024-02-26T07:20:02;5.90;99.90
3756;DHT22;1893;52.526;13.360;2024-02-26T07:22:30;6.10;99.90
3756;DHT22;1893;52.526;13.360;2024-02-26T07:24:56;6.10;99.90
3756;DHT22;1893;52.526;13.360;2024-02-26T07:27:21;6.40;99.90
3756;DHT22;1893;52.526;13.360;2024-02-26T07:29:47;6.70;99.90
3756;DHT22;1893;52.526;13.360;2024-02-26T07:32:13;6.70;99.90
3756;DHT22;1893;52.526;13.360;2024-02-26T07:34:39;6.90;99.90
3756;DHT22;1893;52.526;13.360;2024-02-26T07:37:07;7.20;99.90
3756;DHT22;1893;52.526;13.360;2024-02-26T07:39:33;7.20;99.90
3756;DHT22;1893;52.526;13.360;2024-02-26T07:41:59;7.30;99.90
3756;DHT22;1893;52.526;13.360;2024-02-26T07:44:24;7.40;99.90
3756;DHT22;1893;52.526;13.360;2024-02-26T07:46:50;7.50;99.90
3756;DHT22;1893;52.526;13.360;2024-02-26T07:49:16;7.60;99.90
3756;DHT22;1893;52.526;13.360;2024-02-26T07:51:41;7.60;99.90
3756;DHT22;1893;52.526;13.360;2024-02-26T07:54:07;7.80;99.90
3756;DHT22;1893;52.526;13.360;2024-02-26T07:56:33;8.00;99.90
3756;DHT22;1893;52.526;13.360;2024-02-26T07:58:58;8.00;99.90
3756;DHT22;1893;52.526;13.360;2024-02-26T08:01:24;8.20;99.90
3756;DHT22;1893;52.526;13.360;2024-02-26T08:03:54;8.00;99.90
3756;DHT22;1893;52.526;13.360;2024-02-26T08:06:21;8.00;99.90
3756;DHT22;1893;52.526;13.360;2024-02-26T08:08:46;7.90;99.90
3756;DHT22;1893;52.526;13.360;2024-02-26T08:11:14;7.70;99.90
3756;DHT22;1893;52.526;13.360;2024-02-26T08:13:41;7.70;99.90
3756;DHT22;1893;52.526;13.360;2024-02-26T08:16:06;7.70;99.90
3756;DHT22;1893;52.526;13.360;2024-02-26T08:18:32;7.70;99.90
3756;DHT22;1893;52.526;13.360;2024-02-26T08:20:57;7.60;99.90
3756;DHT22;1893;52.526;13.360;2024-02-26T08:23:23;7.60;99.90
3756;DHT22;1893;52.526;13.360;2024-02-26T08:25:49;7.50;99.90
3756;DHT22;1893;52.526;13.360;2024-02-26T08:28:14;7.50;99.90
3756;DHT22;1893;52.526;13.360;2024-02-26T08:30:43;7.60;99.90
3756;DHT22;1893;52.526;13.360;2024-02-26T08:33:09;7.90;99.90
3756;DHT22;1893;52.526;13.360;2024-02-26T08:35:35;8.00;99.90
3756;DHT22;1893;52.526;13.360;2024-02-26T08:38:01;8.30;99.90
3756;DHT22;1893;52.526;13.360;2024-02-26T08:40:26;8.50;99.90
3756;DHT22;1893;52.526;13.360;2024-02-26T08:42:52;8.80;99.90
3756;DHT22;1893;52.526;13.360;2024-02-26T08:45:18;8.80;99.90
3756;DHT22;1893;52.526;13.360;2024-02-26T08:47:45;9.00;99.90
3756;DHT22;1893;52.526;13.360;2024-02-26T08:50:11;9.20;99.90
3756;DHT22;1893;52.526;13.360;2024-02-26T08:52:38;9.40;99.90
3756;DHT22;1893;52.526;13.360;2024-02-26T08:55:03;9.60;99.90
3756;DHT22;1893;52.526;13.360;2024-02-26T08:57:31;9.90;99.90
3756;DHT22;1893;52.526;13.360;2024-02-26T08:59:59;10.00;99.90
3756;DHT22;1893;52.526;13.360;2024-02-26T09:02:25;10.30;99.90
3756;DHT22;1893;52.526;13.360;2024-02-26T09:04:51;10.60;99.90
3756;DHT22;1893;52.526;13.360;2024-02-26T09:07:19;11.00;99.90
3756;DHT22;1893;52.526;13.360;2024-02-26T09:09:45;11.70;99.90
3756;DHT22;1893;52.526;13.360;2024-02-26T09:12:11;12.00;99.90
3756;DHT22;1893;52.526;13.360;2024-02-26T09:14:36;12.20;99.90
3756;DHT22;1893;52.526;13.360;2024-02-26T09:17:02;11.70;99.90
3756;DHT22;1893;52.526;13.360;2024-02-26T09:19:28;11.80;99.90
3756;DHT22;1893;52.526;13.360;2024-02-26T09:21:55;12.20;99.90
3756;DHT22;1893;52.526;13.360;2024-02-26T09:24:23;12.30;99.90
3756;DHT22;1893;52.526;13.360;2024-02-26T09:26:49;12.10;99.90
3756;DHT22;1893;52.526;13.360;2024-02-26T09:29:14;11.90;99.90
3756;DHT22;1893;52.526;13.360;2024-02-26T09:31:40;11.90;99.90
3756;DHT22;1893;52.526;13.360;2024-02-26T09:34:09;11.50;99.90
3756;DHT22;1893;52.526;13.360;2024-02-26T09:36:35;11.30;99.90
3756;DHT22;1893;52.526;13.360;2024-02-26T09:39:00;11.20;99.90
3756;DHT22;1893;52.526;13.360;2024-02-26T09:41:28;11.10;99.90
3756;DHT22;1893;52.526;13.360;2024-02-26T09:43:56;11.00;99.90
3756;DHT22;1893;52.526;13.360;2024-02-26T09:46:23;11.10;99.90
3756;DHT22;1893;52.526;13.360;2024-02-26T09:48:50;11.30;99.90
3756;DHT22;1893;52.526;13.360;2024-02-26T09:51:16;11.50;99.90
3756;DHT22;1893;52.526;13.360;2024-02-26T09:53:44;11.90;99.90
3756;DHT22;1893;52.526;13.360;2024-02-26T09:56:11;12.00;99.90
3756;DHT22;1893;52.526;13.360;2024-02-26T09:58:39;12.20;99.90
3756;DHT22;1893;52.526;13.360;2024-02-26T10:01:11;12.70;99.90
3756;DHT22;1893;52.526;13.360;2024-02-26T10:03:41;13.20;99.90
3756;DHT22;1893;52.526;13.360;2024-02-26T10:06:08;13.50;99.90
3756;DHT22;1893;52.526;13.360;2024-02-26T10:08:35;13.70;99.90
3756;DHT22;1893;52.526;13.360;2024-02-26T10:11:08;14.20;99.90
3756;DHT22;1893;52.526;13.360;2024-02-26T10:13:35;13.80;99.90
3756;DHT22;1893;52.526;13.360;2024-02-26T10:16:02;14.10;99.90
3756;DHT22;1893;52.526;13.360;2024-02-26T10:18:48;14.40;99.90
3756;DHT22;1893;52.526;13.360;2024-02-26T10:21:16;14.60;99.90
3756;DHT22;1893;52.526;13.360;2024-02-26T10:23:43;14.80;99.90
3756;DHT22;1893;52.526;13.360;2024-02-26T10:26:10;14.40;99.90
3756;DHT22;1893;52.526;13.360;2024-02-26T10:28:37;14.80;99.90
3756;DHT22;1893;52.526;13.360;2024-02-26T10:31:03;15.00;99.90
3756;DHT22;1893;52.526;13.360;2024-02-26T10:33:29;14.80;99.90
3756;DHT22;1893;52.526;13.360;2024-02-26T10:35:55;15.00;99.90
3756;DHT22;1893;52.526;13.360;2024-02-26T10:38:20;14.10;99.90
3756;DHT22;1893;52.526;13.360;2024-02-26T10:40:48;14.50;99.90
3756;DHT22;1893;52.526;13.360;2024-02-26T10:43:14;15.00;99.90
3756;DHT22;1893;52.526;13.360;2024-02-26T10:45:42;15.50;99.90
3756;DHT22;1893;52.526;13.360;2024-02-26T10:48:13;15.60;99.90
3756;DHT22;1893;52.526;13.360;2024-02-26T10:50:40;16.00;99.90
3756;DHT22;1893;52.526;13.360;2024-02-26T10:53:20;16.10;99.90
3756;DHT22;1893;52.526;13.360;2024-02-26T10:55:54;16.70;99.90
3756;DHT22;1893;52.526;13.360;2024-02-26T10:58:21;17.00;99.90
3756;DHT22;1893;52.526;13.360;2024-02-26T11:00:49;16.90;99.90
3756;DHT22;1893;52.526;13.360;2024-02-26T11:03:16;16.70;99.90
3756;DHT22;1893;52.526;13.360;2024-02-26T11:05:44;16.70;99.90
3756;DHT22;1893;52.526;13.360;2024-02-26T11:08:11;17.00;99.90
3756;DHT22;1893;52.526;13.360;2024-02-26T11:10:37;17.30;99.90
3756;DHT22;1893;52.526;13.360;2024-02-26T11:13:04;17.40;99.90
3756;DHT22;1893;52.526;13.360;2024-02-26T11:15:30;17.90;99.90
3756;DHT22;1893;52.526;13.360;2024-02-26T11:17:59;17.70;99.90
3756;DHT22;1893;52.526;13.360;2024-02-26T11:20:26;17.00;99.90
3756;DHT22;1893;52.526;13.360;2024-02-26T11:22:53;16.30;99.90
3756;DHT22;1893;52.526;13.360;2024-02-26T11:25:19;17.10;99.90
3756;DHT22;1893;52.526;13.360;2024-02-26T11:27:51;17.10;99.90
3756;DHT22;1893;52.526;13.360;2024-02-26T11:30:18;17.10;99.90
3756;DHT22;1893;52.526;13.360;2024-02-26T11:32:45;16.10;99.90
3756;DHT22;1893;52.526;13.360;2024-02-26T11:35:12;16.00;99.90
3756;DHT22;1893;52.526;13.360;2024-02-26T11:37:41;15.80;99.90
3756;DHT22;1893;52.526;13.360;2024-02-26T11:40:11;16.00;99.90
3756;DHT22;1893;52.526;13.360;2024-02-26T11:42:43;15.70;99.90
3756;DHT22;1893;52.526;13.360;2024-02-26T11:48:15;15.60;99.90
3756;DHT22;1893;52.526;13.360;2024-02-26T11:50:42;15.60;99.90
3756;DHT22;1893;52.526;13.360;2024-02-26T11:53:46;15.60;99.90
3756;DHT22;1893;52.526;13.360;2024-02-26T11:56:20;15.60;99.90
3756;DHT22;1893;52.526;13.360;2024-02-26T11:58:56;15.40;99.90
3756;DHT22;1893;52.526;13.360;2024-02-26T12:01:47;15.30;99.90
3756;DHT22;1893;52.526;13.360;2024-02-26T12:06:58;14.80;99.90
3756;DHT22;1893;52.526;13.360;2024-02-26T12:11:58;14.70;99.90
3756;DHT22;1893;52.526;13.360;2024-02-26T12:14:26;14.30;99.90
3756;DHT22;1893;52.526;13.360;2024-02-26T12:16:53;14.00;99.90
3756;DHT22;1893;52.526;13.360;2024-02-26T12:19:18;14.10;99.90
3756;DHT22;1893;52.526;13.360;2024-02-26T12:21:44;14.00;99.90
3756;DHT22;1893;52.526;13.360;2024-02-26T12:24:11;14.20;99.90
3756;DHT22;1893;52.526;13.360;2024-02-26T12:26:38;14.20;99.90
3756;DHT22;1893;52.526;13.360;2024-02-26T12:29:04;14.20;99.90
3756;DHT22;1893;52.526;13.360;2024-02-26T12:31:31;14.40;99.90
3756;DHT22;1893;52.526;13.360;2024-02-26T12:33:57;15.10;99.90
3756;DHT22;1893;52.526;13.360;2024-02-26T12:36:23;15.50;99.90
3756;DHT22;1893;52.526;13.360;2024-02-26T12:38:52;16.00;99.90
3756;DHT22;1893;52.526;13.360;2024-02-26T12:41:18;16.30;99.90
3756;DHT22;1893;52.526;13.360;2024-02-26T12:43:44;16.40;99.90
3756;DHT22;1893;52.526;13.360;2024-02-26T12:46:10;16.40;99.90
3756;DHT22;1893;52.526;13.360;2024-02-26T12:48:36;17.30;99.90
3756;DHT22;1893;52.526;13.360;2024-02-26T12:51:02;17.10;99.90
3756;DHT22;1893;52.526;13.360;2024-02-26T12:53:28;16.60;99.90
3756;DHT22;1893;52.526;13.360;2024-02-26T12:55:54;16.30;99.90
3756;DHT22;1893;52.526;13.360;2024-02-26T12:58:21;16.10;99.90
3756;DHT22;1893;52.526;13.360;2024-02-26T13:00:51;16.00;99.90
3756;DHT22;1893;52.526;13.360;2024-02-26T13:03:17;15.60;99.90
3756;DHT22;1893;52.526;13.360;2024-02-26T13:05:43;15.10;99.90
3756;DHT22;1893;52.526;13.360;2024-02-26T13:08:08;15.00;99.90
3756;DHT22;1893;52.526;13.360;2024-02-26T13:10:34;15.00;99.90
3756;DHT22;1893;52.526;13.360;2024-02-26T13:13:02;14.80;99.90
3756;DHT22;1893;52.526;13.360;2024-02-26T13:15:28;14.70;99.90
3756;DHT22;1893;52.526;13.360;2024-02-26T13:20:28;14.00;99.90
3756;DHT22;1893;52.526;13.360;2024-02-26T13:23:04;13.90;99.90
3756;DHT22;1893;52.526;13.360;2024-02-26T13:25:31;13.80;99.90
3756;DHT22;1893;52.526;13.360;2024-02-26T13:28:16;13.80;99.90
3756;DHT22;1893;52.526;13.360;2024-02-26T13:30:57;13.50;99.90
3756;DHT22;1893;52.526;13.360;2024-02-26T13:33:23;13.50;99.90
3756;DHT22;1893;52.526;13.360;2024-02-26T13:35:54;13.50;99.90
3756;DHT22;1893;52.526;13.360;2024-02-26T13:38:20;13.40;99.90
3756;DHT22;1893;52.526;13.360;2024-02-26T13:40:46;13.50;99.90
3756;DHT22;1893;52.526;13.360;2024-02-26T13:43:12;13.30;99.90
3756;DHT22;1893;52.526;13.360;2024-02-26T13:45:38;13.10;99.90
3756;DHT22;1893;52.526;13.360;2024-02-26T13:48:06;12.90;99.90
3756;DHT22;1893;52.526;13.360;2024-02-26T13:50:32;12.70;99.90
3756;DHT22;1893;52.526;13.360;2024-02-26T13:52:58;12.60;99.90
3756;DHT22;1893;52.526;13.360;2024-02-26T13:55:25;12.60;99.90
3756;DHT22;1893;52.526;13.360;2024-02-26T13:57:54;12.50;99.90
3756;DHT22;1893;52.526;13.360;2024-02-26T14:00:20;12.50;99.90
3756;DHT22;1893;52.526;13.360;2024-02-26T14:02:46;12.40;99.90
3756;DHT22;1893;52.526;13.360;2024-02-26T14:05:12;12.40;99.90
3756;DHT22;1893;52.526;13.360;2024-02-26T14:07:37;12.30;99.90
3756;DHT22;1893;52.526;13.360;2024-02-26T14:10:03;12.40;99.90
3756;DHT22;1893;52.526;13.360;2024-02-26T14:12:29;12.50;99.90
3756;DHT22;1893;52.526;13.360;2024-02-26T14:14:55;12.70;99.90
3756;DHT22;1893;52.526;13.360;2024-02-26T14:17:21;12.60;99.90
3756;DHT22;1893;52.526;13.360;2024-02-26T14:19:48;12.50;99.90
3756;DHT22;1893;52.526;13.360;2024-02-26T14:22:14;12.40;99.90
3756;DHT22;1893;52.526;13.360;2024-02-26T14:24:41;12.40;99.90
3756;DHT22;1893;52.526;13.360;2024-02-26T14:27:10;12.20;99.90
3756;DHT22;1893;52.526;13.360;2024-02-26T14:29:35;12.10;99.90
3756;DHT22;1893;52.526;13.360;2024-02-26T14:32:03;12.00;99.90
3756;DHT22;1893;52.526;13.360;2024-02-26T14:34:29;12.10;99.90
3756;DHT22;1893;52.526;13.360;2024-02-26T14:36:54;12.10;99.90
3756;DHT22;1893;52.526;13.360;2024-02-26T14:39:21;12.00;99.90
3756;DHT22;1893;52.526;13.360;2024-02-26T14:41:46;12.00;99.90
3756;DHT22;1893;52.526;13.360;2024-02-26T14:44:12;11.90;99.90
3756;DHT22;1893;52.526;13.360;2024-02-26T14:46:38;11.80;99.90
3756;DHT22;1893;52.526;13.360;2024-02-26T14:49:04;11.70;99.90
3756;DHT22;1893;52.526;13.360;2024-02-26T14:51:30;11.70;99.90
3756;DHT22;1893;52.526;13.360;2024-02-26T14:53:56;11.60;99.90
3756;DHT22;1893;52.526;13.360;2024-02-26T14:56:22;11.50;99.90
3756;DHT22;1893;52.526;13.360;2024-02-26T14:58:47;11.60;99.90
3756;DHT22;1893;52.526;13.360;2024-02-26T15:01:13;11.60;99.90
3756;DHT22;1893;52.526;13.360;2024-02-26T15:03:39;11.50;99.90
3756;DHT22;1893;52.526;13.360;2024-02-26T15:06:04;11.60;99.90
3756;DHT22;1893;52.526;13.360;2024-02-26T15:08:31;11.50;99.90
3756;DHT22;1893;52.526;13.360;2024-02-26T15:10:56;11.40;99.90
3756;DHT22;1893;52.526;13.360;2024-02-26T15:13:22;11.30;99.90
3756;DHT22;1893;52.526;13.360;2024-02-26T15:15:47;11.30;99.90
3756;DHT22;1893;52.526;13.360;2024-02-26T15:18:13;11.30;99.90
3756;DHT22;1893;52.526;13.360;2024-02-26T15:20:45;11.20;99.90
3756;DHT22;1893;52.526;13.360;2024-02-26T15:23:13;11.20;99.90
3756;DHT22;1893;52.526;13.360;2024-02-26T15:25:39;11.20;99.90
3756;DHT22;1893;52.526;13.360;2024-02-26T15:28:06;11.20;99.90
3756;DHT22;1893;52.526;13.360;2024-02-26T15:30:32;11.20;99.90
3756;DHT22;1893;52.526;13.360;2024-02-26T15:32:59;11.10;99.90
3756;DHT22;1893;52.526;13.360;2024-02-26T15:35:25;11.00;99.90
3756;DHT22;1893;52.526;13.360;2024-02-26T15:37:51;11.00;99.90
3756;DHT22;1893;52.526;13.360;2024-02-26T15:40:18;11.00;99.90
3756;DHT22;1893;52.526;13.360;2024-02-26T15:42:45;10.90;99.90
3756;DHT22;1893;52.526;13.360;2024-02-26T15:45:11;11.00;99.90
3756;DHT22;1893;52.526;13.360;2024-02-26T15:47:37;11.00;99.90
3756;DHT22;1893;52.526;13.360;2024-02-26T15:50:04;10.90;99.90
3756;DHT22;1893;52.526;13.360;2024-02-26T15:52:30;10.80;99.90
3756;DHT22;1893;52.526;13.360;2024-02-26T15:54:55;10.80;99.90
3756;DHT22;1893;52.526;13.360;2024-02-26T15:57:21;10.70;99.90
3756;DHT22;1893;52.526;13.360;2024-02-26T15:59:47;10.70;99.90
3756;DHT22;1893;52.526;13.360;2024-02-26T16:02:18;10.70;99.90